sensor_id;sensor_type;location;lat;lon;timestamp;P1;durP1;ratioP1;P2;durP2;ratioP2
5381;SDS011;2714;49.852;6.564;2023-02-08T00:00:41;14.30;;;8.10;;
5381;SDS011;2714;49.852;6.564;2023-02-08T00:04:42;17.93;;;8.33;;
5381;SDS011;2714;49.852;6.564;2023-02-08T00:08:43;16.27;;;8.40;;
5381;SDS011;2714;49.852;6.564;2023-02-08T00:12:44;13.27;;;9.30;;
5381;SDS011;2714;49.852;6.564;2023-02-08T00:16:45;11.23;;;7.40;;
5381;SDS011;2714;49.852;6.564;2023-02-08T00:20:45;14.80;;;8.17;;
5381;SDS011;2714;49.852;6.564;2023-02-08T00:24:46;15.30;;;8.27;;
5381;SDS011;2714;49.852;6.564;2023-02-08T00:28:48;19.80;;;8.60;;
5381;SDS011;2714;49.852;6.564;2023-02-08T00:32:48;12.23;;;7.50;;
5381;SDS011;2714;49.852;6.564;2023-02-08T00:36:49;16.37;;;9.40;;
5381;SDS011;2714;49.852;6.564;2023-02-08T00:40:50;13.77;;;8.17;;
5381;SDS011;2714;49.852;6.564;2023-02-08T00:44:51;18.33;;;9.10;;
5381;SDS011;2714;49.852;6.564;2023-02-08T00:48:51;13.10;;;8.70;;
5381;SDS011;2714;49.852;6.564;2023-02-08T00:52:53;14.70;;;8.70;;
5381;SDS011;2714;49.852;6.564;2023-02-08T00:56:53;19.70;;;9.93;;
5381;SDS011;2714;49.852;6.564;2023-02-08T01:00:54;14.57;;;8.13;;
5381;SDS011;2714;49.852;6.564;2023-02-08T01:04:54;14.10;;;8.33;;
5381;SDS011;2714;49.852;6.564;2023-02-08T01:08:55;12.93;;;8.00;;
5381;SDS011;2714;49.852;6.564;2023-02-08T01:12:56;12.50;;;7.37;;
5381;SDS011;2714;49.852;6.564;2023-02-08T01:16:56;14.60;;;8.03;;
5381;SDS011;2714;49.852;6.564;2023-02-08T01:21:02;13.13;;;7.03;;
5381;SDS011;2714;49.852;6.564;2023-02-08T01:25:13;11.50;;;6.90;;
5381;SDS011;2714;49.852;6.564;2023-02-08T01:29:14;12.97;;;7.70;;
5381;SDS011;2714;49.852;6.564;2023-02-08T01:33:15;11.93;;;7.10;;
5381;SDS011;2714;49.852;6.564;2023-02-08T01:37:15;12.20;;;7.10;;
5381;SDS011;2714;49.852;6.564;2023-02-08T01:41:17;16.90;;;8.63;;
5381;SDS011;2714;49.852;6.564;2023-02-08T01:45:28;15.53;;;8.30;;
5381;SDS011;2714;49.852;6.564;2023-02-08T01:49:31;13.93;;;7.93;;
5381;SDS011;2714;49.852;6.564;2023-02-08T01:53:35;15.13;;;8.30;;
5381;SDS011;2714;49.852;6.564;2023-02-08T01:57:36;16.20;;;8.10;;
5381;SDS011;2714;49.852;6.564;2023-02-08T02:01:37;15.10;;;8.50;;
5381;SDS011;2714;49.852;6.564;2023-02-08T02:05:43;23.83;;;7.77;;
5381;SDS011;2714;49.852;6.564;2023-02-08T02:09:56;12.37;;;7.63;;
5381;SDS011;2714;49.852;6.564;2023-02-08T02:14:17;13.97;;;7.90;;
5381;SDS011;2714;49.852;6.564;2023-02-08T02:18:28;14.67;;;8.13;;
5381;SDS011;2714;49.852;6.564;2023-02-08T02:35:26;14.00;;;8.80;;
5381;SDS011;2714;49.852;6.564;2023-02-08T02:44:04;13.40;;;7.80;;
5381;SDS011;2714;49.852;6.564;2023-02-08T02:48:12;15.00;;;8.60;;
5381;SDS011;2714;49.852;6.564;2023-02-08T02:52:27;13.90;;;8.70;;
5381;SDS011;2714;49.852;6.564;2023-02-08T02:56:34;15.50;;;7.70;;
5381;SDS011;2714;49.852;6.564;2023-02-08T03:00:38;13.43;;;7.87;;
5381;SDS011;2714;49.852;6.564;2023-02-08T03:08:49;13.43;;;8.00;;
5381;SDS011;2714;49.852;6.564;2023-02-08T03:22:03;16.93;;;8.43;;
5381;SDS011;2714;49.852;6.564;2023-02-08T03:26:34;12.83;;;7.57;;
5381;SDS011;2714;49.852;6.564;2023-02-08T03:35:06;11.60;;;7.40;;
5381;SDS011;2714;49.852;6.564;2023-02-08T03:39:15;12.27;;;7.10;;
5381;SDS011;2714;49.852;6.564;2023-02-08T03:43:20;12.97;;;7.10;;
5381;SDS011;2714;49.852;6.564;2023-02-08T03:47:27;13.97;;;7.97;;
5381;SDS011;2714;49.852;6.564;2023-02-08T03:51:30;14.53;;;7.40;;
5381;SDS011;2714;49.852;6.564;2023-02-08T03:55:34;11.77;;;7.13;;
5381;SDS011;2714;49.852;6.564;2023-02-08T03:59:38;13.97;;;7.87;;
5381;SDS011;2714;49.852;6.564;2023-02-08T04:03:42;12.83;;;7.60;;
5381;SDS011;2714;49.852;6.564;2023-02-08T04:07:44;14.27;;;7.70;;
5381;SDS011;2714;49.852;6.564;2023-02-08T04:11:44;15.63;;;7.87;;
5381;SDS011;2714;49.852;6.564;2023-02-08T04:15:45;11.10;;;7.10;;
5381;SDS011;2714;49.852;6.564;2023-02-08T04:19:45;18.00;;;7.73;;
5381;SDS011;2714;49.852;6.564;2023-02-08T04:23:46;15.57;;;8.80;;
5381;SDS011;2714;49.852;6.564;2023-02-08T04:27:46;12.07;;;7.43;;
5381;SDS011;2714;49.852;6.564;2023-02-08T04:31:47;12.40;;;6.90;;
5381;SDS011;2714;49.852;6.564;2023-02-08T04:35:48;12.37;;;7.37;;
5381;SDS011;2714;49.852;6.564;2023-02-08T04:39:48;13.70;;;8.00;;
5381;SDS011;2714;49.852;6.564;2023-02-08T04:43:49;10.67;;;6.30;;
5381;SDS011;2714;49.852;6.564;2023-02-08T04:47:49;13.27;;;7.73;;
5381;SDS011;2714;49.852;6.564;2023-02-08T04:51:50;12.90;;;7.70;;
5381;SDS011;2714;49.852;6.564;2023-02-08T04:55:50;14.20;;;7.87;;
5381;SDS011;2714;49.852;6.564;2023-02-08T04:59:51;17.20;;;7.80;;
5381;SDS011;2714;49.852;6.564;2023-02-08T05:03:52;12.10;;;7.40;;
5381;SDS011;2714;49.852;6.564;2023-02-08T05:07:52;12.47;;;6.73;;
5381;SDS011;2714;49.852;6.564;2023-02-08T05:11:53;18.03;;;8.90;;
5381;SDS011;2714;49.852;6.564;2023-02-08T05:15:53;13.43;;;7.47;;
5381;SDS011;2714;49.852;6.564;2023-02-08T05:19:54;17.07;;;9.00;;
5381;SDS011;2714;49.852;6.564;2023-02-08T05:23:55;13.30;;;7.40;;
5381;SDS011;2714;49.852;6.564;2023-02-08T05:27:55;11.07;;;7.20;;
5381;SDS011;2714;49.852;6.564;2023-02-08T05:31:56;13.33;;;7.37;;
5381;SDS011;2714;49.852;6.564;2023-02-08T05:35:56;12.87;;;7.37;;
5381;SDS011;2714;49.852;6.564;2023-02-08T05:39:57;14.43;;;7.07;;
5381;SDS011;2714;49.852;6.564;2023-02-08T05:43:58;15.23;;;7.97;;
5381;SDS011;2714;49.852;6.564;2023-02-08T05:47:58;10.33;;;6.40;;
5381;SDS011;2714;49.852;6.564;2023-02-08T05:51:59;12.37;;;6.93;;
5381;SDS011;2714;49.852;6.564;2023-02-08T05:55:59;10.43;;;6.70;;
5381;SDS011;2714;49.852;6.564;2023-02-08T06:00:00;11.40;;;7.53;;
5381;SDS011;2714;49.852;6.564;2023-02-08T06:04:01;12.03;;;6.83;;
5381;SDS011;2714;49.852;6.564;2023-02-08T06:08:02;12.87;;;8.23;;
5381;SDS011;2714;49.852;6.564;2023-02-08T06:12:02;11.63;;;7.90;;
5381;SDS011;2714;49.852;6.564;2023-02-08T06:16:04;18.33;;;7.90;;
5381;SDS011;2714;49.852;6.564;2023-02-08T06:20:05;13.77;;;7.73;;
5381;SDS011;2714;49.852;6.564;2023-02-08T06:24:06;11.93;;;7.20;;
5381;SDS011;2714;49.852;6.564;2023-02-08T06:28:07;12.47;;;7.00;;
5381;SDS011;2714;49.852;6.564;2023-02-08T06:32:09;11.73;;;6.77;;
5381;SDS011;2714;49.852;6.564;2023-02-08T06:36:10;13.33;;;8.13;;
5381;SDS011;2714;49.852;6.564;2023-02-08T06:40:10;12.77;;;7.27;;
5381;SDS011;2714;49.852;6.564;2023-02-08T06:44:11;10.80;;;6.60;;
5381;SDS011;2714;49.852;6.564;2023-02-08T06:48:12;13.03;;;7.13;;
5381;SDS011;2714;49.852;6.564;2023-02-08T06:52:13;10.63;;;6.60;;
5381;SDS011;2714;49.852;6.564;2023-02-08T06:56:14;11.70;;;6.77;;
5381;SDS011;2714;49.852;6.564;2023-02-08T07:00:14;14.00;;;6.97;;
5381;SDS011;2714;49.852;6.564;2023-02-08T07:04:15;12.00;;;6.87;;
5381;SDS011;2714;49.852;6.564;2023-02-08T07:08:15;10.10;;;6.80;;
5381;SDS011;2714;49.852;6.564;2023-02-08T07:12:16;12.43;;;7.33;;
5381;SDS011;2714;49.852;6.564;2023-02-08T07:16:17;14.50;;;6.77;;
5381;SDS011;2714;49.852;6.564;2023-02-08T07:20:18;12.40;;;7.30;;
5381;SDS011;2714;49.852;6.564;2023-02-08T07:24:18;12.33;;;6.60;;
5381;SDS011;2714;49.852;6.564;2023-02-08T07:28:19;15.03;;;7.40;;
5381;SDS011;2714;49.852;6.564;2023-02-08T07:32:20;13.10;;;6.87;;
5381;SDS011;2714;49.852;6.564;2023-02-08T07:36:20;10.47;;;6.30;;
5381;SDS011;2714;49.852;6.564;2023-02-08T07:40:21;11.87;;;7.17;;
5381;SDS011;2714;49.852;6.564;2023-02-08T07:44:21;13.10;;;6.90;;
5381;SDS011;2714;49.852;6.564;2023-02-08T07:48:22;14.77;;;8.00;;
5381;SDS011;2714;49.852;6.564;2023-02-08T07:52:23;13.53;;;8.20;;
5381;SDS011;2714;49.852;6.564;2023-02-08T07:56:23;14.33;;;8.07;;
5381;SDS011;2714;49.852;6.564;2023-02-08T08:00:24;11.77;;;7.13;;
5381;SDS011;2714;49.852;6.564;2023-02-08T08:04:25;12.13;;;7.30;;
5381;SDS011;2714;49.852;6.564;2023-02-08T08:08:26;15.90;;;8.47;;
5381;SDS011;2714;49.852;6.564;2023-02-08T08:12:27;14.73;;;7.50;;
5381;SDS011;2714;49.852;6.564;2023-02-08T08:16:27;8.63;;;5.97;;
5381;SDS011;2714;49.852;6.564;2023-02-08T08:20:28;11.90;;;6.63;;
5381;SDS011;2714;49.852;6.564;2023-02-08T08:24:29;11.83;;;6.97;;
5381;SDS011;2714;49.852;6.564;2023-02-08T08:28:30;11.37;;;6.80;;
5381;SDS011;2714;49.852;6.564;2023-02-08T08:32:31;22.43;;;8.00;;
5381;SDS011;2714;49.852;6.564;2023-02-08T08:36:31;25.30;;;7.83;;
5381;SDS011;2714;49.852;6.564;2023-02-08T08:40:32;22.23;;;7.30;;
5381;SDS011;2714;49.852;6.564;2023-02-08T08:44:32;12.00;;;7.43;;
5381;SDS011;2714;49.852;6.564;2023-02-08T08:48:34;29.53;;;13.17;;
5381;SDS011;2714;49.852;6.564;2023-02-08T08:52:35;23.60;;;11.20;;
5381;SDS011;2714;49.852;6.564;2023-02-08T08:56:35;11.63;;;6.70;;
5381;SDS011;2714;49.852;6.564;2023-02-08T09:00:36;15.00;;;7.47;;
5381;SDS011;2714;49.852;6.564;2023-02-08T09:04:36;9.60;;;6.23;;
5381;SDS011;2714;49.852;6.564;2023-02-08T09:08:39;15.60;;;8.50;;
5381;SDS011;2714;49.852;6.564;2023-02-08T09:12:40;13.73;;;9.00;;
5381;SDS011;2714;49.852;6.564;2023-02-08T09:16:41;9.50;;;7.90;;
5381;SDS011;2714;49.852;6.564;2023-02-08T09:20:46;13.63;;;10.17;;
5381;SDS011;2714;49.852;6.564;2023-02-08T09:24:46;11.90;;;9.23;;
5381;SDS011;2714;49.852;6.564;2023-02-08T09:28:47;10.50;;;9.23;;
5381;SDS011;2714;49.852;6.564;2023-02-08T09:32:48;10.67;;;8.80;;
5381;SDS011;2714;49.852;6.564;2023-02-08T09:36:48;10.10;;;8.63;;
5381;SDS011;2714;49.852;6.564;2023-02-08T09:40:58;10.93;;;9.13;;
5381;SDS011;2714;49.852;6.564;2023-02-08T09:49:56;10.50;;;9.10;;
5381;SDS011;2714;49.852;6.564;2023-02-08T09:54:07;10.93;;;9.83;;
5381;SDS011;2714;49.852;6.564;2023-02-08T09:58:21;9.80;;;8.80;;
5381;SDS011;2714;49.852;6.564;2023-02-08T10:02:42;9.87;;;8.67;;
5381;SDS011;2714;49.852;6.564;2023-02-08T10:06:43;11.47;;;10.27;;
5381;SDS011;2714;49.852;6.564;2023-02-08T10:10:55;11.03;;;9.07;;
5381;SDS011;2714;49.852;6.564;2023-02-08T10:15:40;9.80;;;8.80;;
5381;SDS011;2714;49.852;6.564;2023-02-08T10:20:07;14.20;;;10.07;;
5381;SDS011;2714;49.852;6.564;2023-02-08T10:33:16;9.70;;;7.70;;
5381;SDS011;2714;49.852;6.564;2023-02-08T10:37:26;11.97;;;8.00;;
5381;SDS011;2714;49.852;6.564;2023-02-08T10:41:34;11.37;;;7.53;;
5381;SDS011;2714;49.852;6.564;2023-02-08T10:50:21;15.60;;;10.07;;
5381;SDS011;2714;49.852;6.564;2023-02-08T10:54:27;9.97;;;7.80;;
5381;SDS011;2714;49.852;6.564;2023-02-08T10:58:27;8.60;;;6.40;;
5381;SDS011;2714;49.852;6.564;2023-02-08T11:02:33;6.90;;;6.23;;
5381;SDS011;2714;49.852;6.564;2023-02-08T11:06:39;5.90;;;5.30;;
5381;SDS011;2714;49.852;6.564;2023-02-08T11:10:42;6.33;;;5.40;;
5381;SDS011;2714;49.852;6.564;2023-02-08T11:15:02;5.20;;;4.70;;
5381;SDS011;2714;49.852;6.564;2023-02-08T11:19:03;6.93;;;5.17;;
5381;SDS011;2714;49.852;6.564;2023-02-08T11:23:27;7.20;;;5.93;;
5381;SDS011;2714;49.852;6.564;2023-02-08T11:27:31;6.83;;;5.97;;
5381;SDS011;2714;49.852;6.564;2023-02-08T11:31:34;6.30;;;4.90;;
5381;SDS011;2714;49.852;6.564;2023-02-08T11:35:35;6.60;;;4.53;;
5381;SDS011;2714;49.852;6.564;2023-02-08T11:39:41;8.23;;;5.70;;
5381;SDS011;2714;49.852;6.564;2023-02-08T11:43:54;5.67;;;4.87;;
5381;SDS011;2714;49.852;6.564;2023-02-08T11:47:58;5.80;;;4.80;;
5381;SDS011;2714;49.852;6.564;2023-02-08T11:52:00;6.20;;;4.40;;
5381;SDS011;2714;49.852;6.564;2023-02-08T12:00:23;5.70;;;4.30;;
5381;SDS011;2714;49.852;6.564;2023-02-08T12:04:26;5.57;;;3.80;;
5381;SDS011;2714;49.852;6.564;2023-02-08T12:08:32;5.07;;;3.40;;
5381;SDS011;2714;49.852;6.564;2023-02-08T12:13:13;5.97;;;4.23;;
5381;SDS011;2714;49.852;6.564;2023-02-08T12:22:06;7.60;;;3.10;;
5381;SDS011;2714;49.852;6.564;2023-02-08T12:30:36;5.37;;;3.53;;
5381;SDS011;2714;49.852;6.564;2023-02-08T12:43:57;3.90;;;3.10;;
5381;SDS011;2714;49.852;6.564;2023-02-08T12:52:41;5.33;;;3.60;;
5381;SDS011;2714;49.852;6.564;2023-02-08T12:57:02;5.70;;;3.73;;
5381;SDS011;2714;49.852;6.564;2023-02-08T13:01:48;5.97;;;3.77;;
5381;SDS011;2714;49.852;6.564;2023-02-08T13:05:37;22.30;;;12.87;;
5381;SDS011;2714;49.852;6.564;2023-02-08T13:09:43;5.17;;;4.07;;
5381;SDS011;2714;49.852;6.564;2023-02-08T13:18:41;9.27;;;4.70;;
5381;SDS011;2714;49.852;6.564;2023-02-08T13:22:47;4.57;;;2.63;;
5381;SDS011;2714;49.852;6.564;2023-02-08T13:26:49;6.93;;;3.30;;
5381;SDS011;2714;49.852;6.564;2023-02-08T13:34:57;4.40;;;2.43;;
5381;SDS011;2714;49.852;6.564;2023-02-08T13:39:07;4.53;;;3.27;;
5381;SDS011;2714;49.852;6.564;2023-02-08T13:43:28;3.77;;;2.80;;
5381;SDS011;2714;49.852;6.564;2023-02-08T13:51:51;6.17;;;3.37;;
5381;SDS011;2714;49.852;6.564;2023-02-08T13:55:54;4.60;;;2.83;;
5381;SDS011;2714;49.852;6.564;2023-02-08T14:04:31;5.73;;;3.30;;
5381;SDS011;2714;49.852;6.564;2023-02-08T14:21:20;4.07;;;2.57;;
5381;SDS011;2714;49.852;6.564;2023-02-08T14:25:44;5.00;;;2.87;;
5381;SDS011;2714;49.852;6.564;2023-02-08T14:29:57;3.37;;;2.70;;
5381;SDS011;2714;49.852;6.564;2023-02-08T14:34:03;4.67;;;3.27;;
5381;SDS011;2714;49.852;6.564;2023-02-08T14:51:26;3.40;;;1.93;;
5381;SDS011;2714;49.852;6.564;2023-02-08T14:55:31;4.50;;;2.20;;
5381;SDS011;2714;49.852;6.564;2023-02-08T14:59:57;3.40;;;2.50;;
5381;SDS011;2714;49.852;6.564;2023-02-08T15:04:00;5.50;;;2.50;;
5381;SDS011;2714;49.852;6.564;2023-02-08T15:08:02;4.80;;;2.40;;
5381;SDS011;2714;49.852;6.564;2023-02-08T15:12:04;5.63;;;3.23;;
5381;SDS011;2714;49.852;6.564;2023-02-08T15:16:21;4.90;;;2.60;;
5381;SDS011;2714;49.852;6.564;2023-02-08T15:20:27;4.90;;;3.27;;
5381;SDS011;2714;49.852;6.564;2023-02-08T15:24:29;4.20;;;2.50;;
5381;SDS011;2714;49.852;6.564;2023-02-08T15:28:32;7.40;;;3.23;;
5381;SDS011;2714;49.852;6.564;2023-02-08T15:32:35;4.20;;;2.93;;
5381;SDS011;2714;49.852;6.564;2023-02-08T15:36:35;4.47;;;3.03;;
5381;SDS011;2714;49.852;6.564;2023-02-08T15:40:37;4.73;;;3.33;;
5381;SDS011;2714;49.852;6.564;2023-02-08T15:44:37;4.93;;;3.50;;
5381;SDS011;2714;49.852;6.564;2023-02-08T15:48:43;4.80;;;3.33;;
5381;SDS011;2714;49.852;6.564;2023-02-08T15:52:45;5.63;;;3.70;;
5381;SDS011;2714;49.852;6.564;2023-02-08T15:56:57;4.97;;;3.00;;
5381;SDS011;2714;49.852;6.564;2023-02-08T16:01:02;6.60;;;3.83;;
5381;SDS011;2714;49.852;6.564;2023-02-08T16:05:20;5.73;;;3.30;;
5381;SDS011;2714;49.852;6.564;2023-02-08T16:09:24;6.30;;;3.77;;
5381;SDS011;2714;49.852;6.564;2023-02-08T16:13:31;5.90;;;3.83;;
5381;SDS011;2714;49.852;6.564;2023-02-08T16:21:44;13.57;;;7.87;;
5381;SDS011;2714;49.852;6.564;2023-02-08T16:25:45;11.20;;;7.97;;
5381;SDS011;2714;49.852;6.564;2023-02-08T16:29:49;9.40;;;5.37;;
5381;SDS011;2714;49.852;6.564;2023-02-08T16:33:55;7.70;;;5.27;;
5381;SDS011;2714;49.852;6.564;2023-02-08T16:37:59;8.90;;;5.53;;
5381;SDS011;2714;49.852;6.564;2023-02-08T16:42:06;9.30;;;6.70;;
5381;SDS011;2714;49.852;6.564;2023-02-08T16:46:20;9.37;;;6.20;;
5381;SDS011;2714;49.852;6.564;2023-02-08T16:50:24;8.37;;;5.40;;
5381;SDS011;2714;49.852;6.564;2023-02-08T16:54:26;10.23;;;5.30;;
5381;SDS011;2714;49.852;6.564;2023-02-08T16:58:26;8.77;;;4.93;;
5381;SDS011;2714;49.852;6.564;2023-02-08T17:02:27;8.77;;;4.80;;
5381;SDS011;2714;49.852;6.564;2023-02-08T17:06:28;6.67;;;3.10;;
5381;SDS011;2714;49.852;6.564;2023-02-08T17:10:31;9.20;;;3.87;;
5381;SDS011;2714;49.852;6.564;2023-02-08T17:14:32;6.73;;;4.63;;
5381;SDS011;2714;49.852;6.564;2023-02-08T17:18:33;6.47;;;4.00;;
5381;SDS011;2714;49.852;6.564;2023-02-08T17:22:37;6.77;;;4.40;;
5381;SDS011;2714;49.852;6.564;2023-02-08T17:26:38;14.77;;;9.00;;
5381;SDS011;2714;49.852;6.564;2023-02-08T17:30:42;21.53;;;12.00;;
5381;SDS011;2714;49.852;6.564;2023-02-08T17:34:43;10.67;;;6.67;;
5381;SDS011;2714;49.852;6.564;2023-02-08T17:38:44;13.43;;;8.30;;
5381;SDS011;2714;49.852;6.564;2023-02-08T17:42:46;12.67;;;7.20;;
5381;SDS011;2714;49.852;6.564;2023-02-08T17:46:46;10.80;;;6.07;;
5381;SDS011;2714;49.852;6.564;2023-02-08T17:50:47;10.27;;;5.73;;
5381;SDS011;2714;49.852;6.564;2023-02-08T17:54:50;7.43;;;4.40;;
5381;SDS011;2714;49.852;6.564;2023-02-08T17:58:50;8.90;;;4.90;;
5381;SDS011;2714;49.852;6.564;2023-02-08T18:02:52;6.60;;;4.30;;
5381;SDS011;2714;49.852;6.564;2023-02-08T18:06:54;10.40;;;4.67;;
5381;SDS011;2714;49.852;6.564;2023-02-08T18:10:55;8.70;;;6.10;;
5381;SDS011;2714;49.852;6.564;2023-02-08T18:15:03;16.90;;;12.40;;
5381;SDS011;2714;49.852;6.564;2023-02-08T18:19:05;8.40;;;4.40;;
5381;SDS011;2714;49.852;6.564;2023-02-08T18:23:05;9.47;;;5.00;;
5381;SDS011;2714;49.852;6.564;2023-02-08T18:27:06;8.73;;;5.00;;
5381;SDS011;2714;49.852;6.564;2023-02-08T18:31:08;11.27;;;6.50;;
5381;SDS011;2714;49.852;6.564;2023-02-08T18:35:10;11.20;;;6.63;;
5381;SDS011;2714;49.852;6.564;2023-02-08T18:39:11;14.70;;;8.90;;
5381;SDS011;2714;49.852;6.564;2023-02-08T18:43:21;12.13;;;7.30;;
5381;SDS011;2714;49.852;6.564;2023-02-08T18:47:22;20.43;;;12.70;;
5381;SDS011;2714;49.852;6.564;2023-02-08T18:51:23;25.50;;;15.47;;
5381;SDS011;2714;49.852;6.564;2023-02-08T18:55:24;16.30;;;10.30;;
5381;SDS011;2714;49.852;6.564;2023-02-08T18:59:25;17.33;;;11.23;;
5381;SDS011;2714;49.852;6.564;2023-02-08T19:03:25;22.93;;;13.57;;
5381;SDS011;2714;49.852;6.564;2023-02-08T19:07:26;31.63;;;18.50;;
5381;SDS011;2714;49.852;6.564;2023-02-08T19:11:27;18.63;;;11.93;;
5381;SDS011;2714;49.852;6.564;2023-02-08T19:15:36;17.67;;;10.07;;
5381;SDS011;2714;49.852;6.564;2023-02-08T19:19:38;15.63;;;8.23;;
5381;SDS011;2714;49.852;6.564;2023-02-08T19:23:39;17.37;;;9.70;;
5381;SDS011;2714;49.852;6.564;2023-02-08T19:27:40;15.33;;;8.10;;
5381;SDS011;2714;49.852;6.564;2023-02-08T19:31:41;10.73;;;6.53;;
5381;SDS011;2714;49.852;6.564;2023-02-08T19:35:42;14.30;;;6.90;;
5381;SDS011;2714;49.852;6.564;2023-02-08T19:39:42;10.93;;;6.90;;
5381;SDS011;2714;49.852;6.564;2023-02-08T19:43:43;14.30;;;8.50;;
5381;SDS011;2714;49.852;6.564;2023-02-08T19:47:44;14.47;;;8.00;;
5381;SDS011;2714;49.852;6.564;2023-02-08T19:51:46;18.20;;;7.40;;
5381;SDS011;2714;49.852;6.564;2023-02-08T19:55:56;10.97;;;6.40;;
5381;SDS011;2714;49.852;6.564;2023-02-08T19:59:58;16.17;;;9.37;;
5381;SDS011;2714;49.852;6.564;2023-02-08T20:03:59;21.50;;;12.90;;
5381;SDS011;2714;49.852;6.564;2023-02-08T20:08:01;20.93;;;11.80;;
5381;SDS011;2714;49.852;6.564;2023-02-08T20:12:01;22.33;;;10.90;;
5381;SDS011;2714;49.852;6.564;2023-02-08T20:16:03;22.43;;;12.10;;
5381;SDS011;2714;49.852;6.564;2023-02-08T20:20:03;14.60;;;8.70;;
5381;SDS011;2714;49.852;6.564;2023-02-08T20:24:05;16.63;;;8.87;;
5381;SDS011;2714;49.852;6.564;2023-02-08T20:28:11;16.00;;;8.70;;
5381;SDS011;2714;49.852;6.564;2023-02-08T20:32:11;16.17;;;9.10;;
5381;SDS011;2714;49.852;6.564;2023-02-08T20:36:13;18.20;;;9.53;;
5381;SDS011;2714;49.852;6.564;2023-02-08T20:40:16;16.67;;;8.97;;
5381;SDS011;2714;49.852;6.564;2023-02-08T20:44:17;17.10;;;9.10;;
5381;SDS011;2714;49.852;6.564;2023-02-08T20:48:18;15.03;;;8.27;;
5381;SDS011;2714;49.852;6.564;2023-02-08T20:52:18;14.80;;;8.40;;
5381;SDS011;2714;49.852;6.564;2023-02-08T20:56:20;10.57;;;6.90;;
5381;SDS011;2714;49.852;6.564;2023-02-08T21:00:23;19.97;;;8.20;;
5381;SDS011;2714;49.852;6.564;2023-02-08T21:04:23;14.80;;;7.57;;
5381;SDS011;2714;49.852;6.564;2023-02-08T21:08:25;12.60;;;7.33;;
5381;SDS011;2714;49.852;6.564;2023-02-08T21:12:25;14.47;;;7.33;;
5381;SDS011;2714;49.852;6.564;2023-02-08T21:16:26;16.90;;;7.90;;
5381;SDS011;2714;49.852;6.564;2023-02-08T21:20:27;18.80;;;8.37;;
5381;SDS011;2714;49.852;6.564;2023-02-08T21:24:28;14.97;;;7.57;;
5381;SDS011;2714;49.852;6.564;2023-02-08T21:28:29;16.70;;;9.30;;
5381;SDS011;2714;49.852;6.564;2023-02-08T21:32:30;15.07;;;8.73;;
5381;SDS011;2714;49.852;6.564;2023-02-08T21:36:31;16.50;;;9.33;;
5381;SDS011;2714;49.852;6.564;2023-02-08T21:40:32;18.43;;;10.40;;
5381;SDS011;2714;49.852;6.564;2023-02-08T21:44:32;19.63;;;10.20;;
5381;SDS011;2714;49.852;6.564;2023-02-08T21:48:34;17.90;;;9.60;;
5381;SDS011;2714;49.852;6.564;2023-02-08T21:52:56;16.47;;;9.50;;
5381;SDS011;2714;49.852;6.564;2023-02-08T21:57:16;17.90;;;8.87;;
5381;SDS011;2714;49.852;6.564;2023-02-08T22:01:17;18.10;;;9.17;;
5381;SDS011;2714;49.852;6.564;2023-02-08T22:05:18;16.87;;;9.03;;
5381;SDS011;2714;49.852;6.564;2023-02-08T22:09:37;14.90;;;8.53;;
5381;SDS011;2714;49.852;6.564;2023-02-08T22:13:41;15.20;;;9.13;;
5381;SDS011;2714;49.852;6.564;2023-02-08T22:17:43;16.83;;;9.90;;
5381;SDS011;2714;49.852;6.564;2023-02-08T22:21:44;16.47;;;8.47;;
5381;SDS011;2714;49.852;6.564;2023-02-08T22:25:44;14.80;;;8.00;;
5381;SDS011;2714;49.852;6.564;2023-02-08T22:29:45;17.03;;;8.07;;
5381;SDS011;2714;49.852;6.564;2023-02-08T22:33:46;16.30;;;8.77;;
5381;SDS011;2714;49.852;6.564;2023-02-08T22:37:46;17.90;;;9.37;;
5381;SDS011;2714;49.852;6.564;2023-02-08T22:41:47;15.97;;;7.57;;
5381;SDS011;2714;49.852;6.564;2023-02-08T22:45:57;13.20;;;7.50;;
5381;SDS011;2714;49.852;6.564;2023-02-08T22:49:59;18.40;;;7.97;;
5381;SDS011;2714;49.852;6.564;2023-02-08T22:54:00;17.33;;;9.50;;
5381;SDS011;2714;49.852;6.564;2023-02-08T22:58:01;19.90;;;9.00;;
5381;SDS011;2714;49.852;6.564;2023-02-08T23:02:02;17.00;;;8.87;;
5381;SDS011;2714;49.852;6.564;2023-02-08T23:06:07;14.13;;;8.00;;
5381;SDS011;2714;49.852;6.564;2023-02-08T23:10:09;17.70;;;8.93;;
5381;SDS011;2714;49.852;6.564;2023-02-08T23:14:10;18.40;;;8.90;;
5381;SDS011;2714;49.852;6.564;2023-02-08T23:18:10;14.67;;;7.60;;
5381;SDS011;2714;49.852;6.564;2023-02-08T23:22:11;14.30;;;7.40;;
5381;SDS011;2714;49.852;6.564;2023-02-08T23:26:14;15.50;;;8.47;;
5381;SDS011;2714;49.852;6.564;2023-02-08T23:30:16;19.10;;;9.50;;
5381;SDS011;2714;49.852;6.564;2023-02-08T23:34:17;15.80;;;8.80;;
5381;SDS011;2714;49.852;6.564;2023-02-08T23:38:17;20.30;;;8.97;;
5381;SDS011;2714;49.852;6.564;2023-02-08T23:42:18;14.07;;;7.97;;
5381;SDS011;2714;49.852;6.564;2023-02-08T23:46:25;17.50;;;8.70;;
5381;SDS011;2714;49.852;6.564;2023-02-08T23:50:26;15.77;;;8.57;;
5381;SDS011;2714;49.852;6.564;2023-02-08T23:54:27;16.57;;;9.00;;
5381;SDS011;2714;49.852;6.564;2023-02-08T23:58:27;17.80;;;8.13;;
